Time;durP1;ratioP1;P1;durP2;ratioP2;P2;SDS_P1;SDS_P2;PMS_P1;PMS_P2;Temp;Humidity;BMP_temperature;BMP_pressure;BME280_temperature;BME280_humidity;BME280_pressure;Samples;Min_cycle;Max_cycle;Signal;HPM_P1;HPM_P2
2022/12/12 00:01:21;;;;;;;32.67;15.18;;;0.60;99.90;;;;;;5108126;28;20405;-63
2022/12/12 00:03:48;;;;;;;29.92;15.13;;;0.60;99.90;;;;;;5109825;28;20054;-64
2022/12/12 00:06:14;;;;;;;27.63;15.60;;;0.60;99.90;;;;;;5110368;28;20853;-63
2022/12/12 00:08:40;;;;;;;26.20;15.10;;;0.60;99.90;;;;;;5108058;28;20068;-64
2022/12/12 00:11:06;;;;;;;27.10;15.85;;;0.60;99.90;;;;;;5109685;28;20103;-62
2022/12/12 00:13:32;;;;;;;29.55;14.90;;;0.70;99.90;;;;;;5107475;28;20046;-63
2022/12/12 00:15:58;;;;;;;31.48;16.20;;;0.60;99.90;;;;;;5109333;28;20074;-64
2022/12/12 00:18:23;;;;;;;28.30;14.82;;;0.60;99.90;;;;;;5108138;28;20514;-65
2022/12/12 00:20:55;;;;;;;31.23;16.83;;;0.60;99.90;;;;;;5109583;28;20039;-64
2022/12/12 00:23:21;;;;;;;27.63;15.88;;;0.70;99.90;;;;;;5109062;28;20048;-63
2022/12/12 00:25:59;;;;;;;28.27;16.73;;;0.70;99.90;;;;;;5089187;28;20371;-64
2022/12/12 00:28:25;;;;;;;28.63;15.35;;;0.70;99.90;;;;;;5081549;28;20938;-64
2022/12/12 00:30:51;;;;;;;27.33;15.55;;;0.90;99.90;;;;;;5107191;28;20067;-64
2022/12/12 00:33:17;;;;;;;24.75;15.40;;;0.70;99.90;;;;;;5092291;28;20055;-64
2022/12/12 00:35:44;;;;;;;31.05;15.93;;;0.70;99.90;;;;;;5107996;28;20090;-63
2022/12/12 00:38:10;;;;;;;29.75;16.08;;;0.70;99.90;;;;;;5077092;28;20036;-64
2022/12/12 00:40:36;;;;;;;29.00;15.57;;;0.70;99.90;;;;;;5110140;28;20043;-65
2022/12/12 00:43:02;;;;;;;28.77;15.35;;;0.60;99.90;;;;;;5108007;28;20391;-65
2022/12/12 00:45:27;;;;;;;28.92;16.05;;;0.80;99.90;;;;;;5110483;28;20063;-63
2022/12/12 00:47:53;;;;;;;30.75;15.25;;;0.70;99.90;;;;;;5107689;28;20040;-64
2022/12/12 00:50:19;;;;;;;30.52;15.77;;;0.70;99.90;;;;;;5092863;28;20975;-64
2022/12/12 00:52:44;;;;;;;27.27;15.40;;;0.70;99.90;;;;;;5110932;28;20075;-63
2022/12/12 00:55:11;;;;;;;25.15;14.52;;;0.70;99.90;;;;;;5113671;28;20039;-64
2022/12/12 00:57:37;;;;;;;29.02;15.80;;;0.80;99.90;;;;;;5093558;28;20086;-63
2022/12/12 01:00:11;;;;;;;25.45;14.63;;;0.70;99.90;;;;;;5093372;28;20466;-64
2022/12/12 01:02:37;;;;;;;29.70;15.75;;;0.70;99.90;;;;;;5112347;28;20054;-64
2022/12/12 01:05:03;;;;;;;27.00;15.07;;;0.60;99.90;;;;;;5110318;28;20043;-64
2022/12/12 01:07:29;;;;;;;26.02;14.95;;;0.60;99.90;;;;;;5095300;28;20055;-65
2022/12/12 01:09:54;;;;;;;29.10;15.40;;;0.60;99.90;;;;;;5109774;28;20082;-65
2022/12/12 01:12:20;;;;;;;28.73;15.52;;;0.60;99.90;;;;;;5113022;28;20047;-64
2022/12/12 01:14:46;;;;;;;26.15;15.32;;;0.70;99.90;;;;;;5111209;28;20078;-63
2022/12/12 01:17:11;;;;;;;28.85;15.55;;;0.70;99.90;;;;;;5111876;28;21033;-64
2022/12/12 01:19:37;;;;;;;25.25;13.68;;;0.70;99.90;;;;;;5094158;28;20108;-64
2022/12/12 01:22:03;;;;;;;26.92;15.02;;;0.70;99.90;;;;;;5109842;28;20047;-63
2022/12/12 01:24:28;;;;;;;27.80;15.45;;;0.70;99.90;;;;;;5094447;28;20075;-64
2022/12/12 01:26:54;;;;;;;26.02;14.48;;;0.70;99.90;;;;;;5109727;28;20087;-65
2022/12/12 01:29:20;;;;;;;26.15;14.52;;;0.70;99.90;;;;;;5113038;28;20289;-63
2022/12/12 01:31:45;;;;;;;26.02;14.48;;;0.70;99.90;;;;;;5110544;28;20058;-64
2022/12/12 01:34:11;;;;;;;26.23;15.02;;;0.60;99.90;;;;;;5110332;28;20052;-63
2022/12/12 01:36:37;;;;;;;27.85;14.32;;;0.60;99.90;;;;;;5113094;28;20074;-64
2022/12/12 01:39:04;;;;;;;26.45;14.07;;;0.70;99.90;;;;;;5063977;28;20044;-63
2022/12/12 01:41:30;;;;;;;33.33;15.25;;;0.60;99.90;;;;;;5113076;28;20052;-64
2022/12/12 01:44:00;;;;;;;27.38;15.02;;;0.70;99.90;;;;;;5109328;28;20623;-64
2022/12/12 01:46:38;;;;;;;28.23;14.43;;;0.70;99.90;;;;;;5111790;28;20050;-64
2022/12/12 01:49:33;;;;;;;29.52;14.65;;;0.60;99.90;;;;;;5111832;28;20107;-65
2022/12/12 01:52:07;;;;;;;28.17;14.68;;;0.70;99.90;;;;;;5109895;28;20036;-64
2022/12/12 01:54:44;;;;;;;26.58;15.07;;;0.60;99.90;;;;;;5112389;28;20051;-64
2022/12/12 01:57:16;;;;;;;26.63;14.38;;;0.60;99.90;;;;;;5110441;28;20081;-63
2022/12/12 01:59:44;;;;;;;24.00;14.00;;;0.60;99.90;;;;;;5112640;28;20130;-64
2022/12/12 02:02:09;;;;;;;24.08;13.80;;;0.70;99.90;;;;;;5111405;28;20062;-63
2022/12/12 02:04:35;;;;;;;26.05;14.05;;;0.70;99.90;;;;;;5109983;28;20047;-64
2022/12/12 02:07:02;;;;;;;26.10;14.10;;;0.70;99.90;;;;;;5112551;28;20054;-63
2022/12/12 02:09:27;;;;;;;24.65;14.32;;;0.70;99.90;;;;;;5110166;28;20051;-65
2022/12/12 02:11:55;;;;;;;23.35;13.15;;;0.70;99.90;;;;;;5112592;28;20050;-65
2022/12/12 02:14:30;;;;;;;23.33;13.55;;;0.70;99.90;;;;;;5110524;28;20051;-64
2022/12/12 02:17:56;;;;;;;26.90;14.27;;;0.70;99.90;;;;;;5111309;28;20055;-64
2022/12/12 02:20:52;;;;;;;26.92;13.25;;;0.70;99.90;;;;;;5014713;28;20030;-63
2022/12/12 02:23:38;;;;;;;25.77;13.15;;;0.70;99.90;;;;;;5025800;28;20049;-63
2022/12/12 02:26:26;;;;;;;29.00;15.63;;;0.70;99.90;;;;;;5105822;28;20148;-63
2022/12/12 02:29:06;;;;;;;24.55;13.45;;;0.70;99.90;;;;;;5092868;28;20142;-63
2022/12/12 02:31:45;;;;;;;24.85;13.88;;;0.70;99.90;;;;;;5109428;28;20051;-64
2022/12/12 02:34:11;;;;;;;26.70;14.32;;;0.70;99.90;;;;;;5110076;28;20803;-64
2022/12/12 02:36:55;;;;;;;25.73;13.75;;;0.80;99.90;;;;;;5111556;28;20031;-63
2022/12/12 02:39:33;;;;;;;24.45;13.32;;;0.80;99.90;;;;;;5109196;28;20079;-63
2022/12/12 02:42:04;;;;;;;24.77;13.75;;;0.70;99.90;;;;;;5089672;28;20067;-63
2022/12/12 02:44:42;;;;;;;23.85;13.48;;;0.30;99.90;;;;;;5090698;28;20055;-62
2022/12/12 02:47:30;;;;;;;24.80;14.07;;;0.70;99.90;;;;;;5109166;28;20077;-63
2022/12/12 02:50:03;;;;;;;27.63;14.32;;;0.70;99.90;;;;;;5093881;28;20055;-63
2022/12/12 02:52:29;;;;;;;25.50;14.18;;;0.80;99.90;;;;;;5108147;28;20506;-65
2022/12/12 02:54:55;;;;;;;31.50;13.88;;;0.80;99.90;;;;;;5110935;28;20542;-63
2022/12/12 02:57:24;;;;;;;26.17;13.95;;;0.70;99.90;;;;;;5110312;28;20031;-64
2022/12/12 02:59:56;;;;;;;25.55;13.27;;;0.70;99.90;;;;;;5109793;28;20039;-64
2022/12/12 03:02:51;;;;;;;23.02;13.48;;;0.70;99.90;;;;;;5111771;28;20052;-64
2022/12/12 03:09:15;;;;;;;25.67;14.07;;;0.70;99.90;;;;;;5108424;28;20060;-63
2022/12/12 03:11:51;;;;;;;24.02;13.00;;;0.70;99.90;;;;;;5111680;28;20462;-64
2022/12/12 03:14:22;;;;;;;;;;;0.70;99.90;;;;;;5107849;28;20048;-63
2022/12/12 03:17:23;;;;;;;24.88;12.93;;;0.70;99.90;;;;;;5110141;28;19924;-63
2022/12/12 03:20:05;;;;;;;26.05;13.77;;;0.70;99.90;;;;;;5078446;28;20066;-64
2022/12/12 03:22:51;;;;;;;22.02;12.55;;;0.70;99.90;;;;;;5107211;28;20039;-64
2022/12/12 03:25:30;;;;;;;24.35;13.95;;;0.70;99.90;;;;;;5110142;28;20043;-64
2022/12/12 03:28:06;;;;;;;24.60;13.80;;;0.70;99.90;;;;;;5091984;28;20047;-63
2022/12/12 03:30:36;;;;;;;;;;;0.70;99.90;;;;;;5108134;28;20051;-64
2022/12/12 03:33:20;;;;;;;24.60;13.70;;;0.70;99.90;;;;;;5091906;28;19927;-64
2022/12/12 03:35:54;;;;;;;26.77;13.32;;;0.70;99.90;;;;;;5108762;28;20043;-63
2022/12/12 03:38:30;;;;;;;24.35;13.30;;;0.70;99.90;;;;;;5086803;28;20172;-63
2022/12/12 03:40:59;;;;;;;26.92;13.45;;;0.70;99.90;;;;;;5110274;28;20054;-63
2022/12/12 03:43:29;;;;;;;25.10;13.15;;;0.70;99.90;;;;;;5107343;28;20040;-64
2022/12/12 03:46:10;;;;;;;24.08;13.63;;;0.90;99.90;;;;;;5092964;28;20350;-65
2022/12/12 03:48:42;;;;;;;26.42;14.85;;;0.70;99.90;;;;;;5090079;28;20120;-64
2022/12/12 03:51:17;;;;;;;24.05;13.73;;;0.70;99.90;;;;;;5092122;28;20073;-64
2022/12/12 03:53:53;;;;;;;26.40;14.32;;;0.70;99.90;;;;;;5110748;28;20039;-63
2022/12/12 03:56:50;;;;;;;26.33;14.13;;;0.70;99.90;;;;;;5107475;28;20043;-64
2022/12/12 03:59:37;;;;;;;27.40;14.45;;;0.70;99.90;;;;;;5110322;28;20039;-63
2022/12/12 04:02:20;;;;;;;26.55;14.18;;;0.70;99.90;;;;;;5109860;28;20036;-63
2022/12/12 04:04:57;;;;;;;26.27;14.43;;;0.80;99.90;;;;;;5107507;28;20045;-63
2022/12/12 04:07:30;;;;;;;25.52;14.35;;;0.70;99.90;;;;;;5091600;28;20048;-64
2022/12/12 04:13:06;;;;;;;24.83;13.23;;;0.70;99.90;;;;;;5092899;28;20074;-67
2022/12/12 04:15:38;;;;;;;25.98;13.57;;;0.70;99.90;;;;;;5109983;28;20071;-64
2022/12/12 04:18:23;;;;;;;25.48;13.85;;;0.70;99.90;;;;;;5107171;28;20062;-63
2022/12/12 04:24:26;;;;;;;21.15;12.75;;;0.70;99.90;;;;;;5111028;28;20044;-64
2022/12/12 04:27:04;;;;;;;24.15;13.70;;;0.70;99.90;;;;;;5110262;28;20077;-63
2022/12/12 04:29:34;;;;;;;26.70;14.15;;;0.70;99.90;;;;;;5113537;28;20047;-63
2022/12/12 04:32:16;;;;;;;24.15;14.10;;;0.70;99.90;;;;;;5095148;28;20036;-63
2022/12/12 04:34:46;;;;;;;22.88;14.02;;;0.70;99.90;;;;;;5110626;28;20335;-65
2022/12/12 04:37:15;;;;;;;23.65;13.77;;;0.70;99.90;;;;;;5111862;28;20043;-64
2022/12/12 04:39:45;;;;;;;25.92;13.82;;;2.30;99.90;;;;;;5093186;28;20721;-64
2022/12/12 04:42:15;;;;;;;25.20;13.63;;;0.70;99.90;;;;;;5114133;28;20069;-64
2022/12/12 04:44:43;;;;;;;24.40;13.52;;;0.70;99.90;;;;;;5112348;28;20113;-63
2022/12/12 04:47:11;;;;;;;22.25;13.10;;;0.70;99.90;;;;;;5093727;28;20051;-64
2022/12/12 04:49:40;;;;;;;24.33;14.07;;;0.70;99.90;;;;;;5095344;28;20054;-64
2022/12/12 04:52:10;;;;;;;25.02;13.85;;;0.70;99.90;;;;;;5111202;28;20686;-64
2022/12/12 04:55:08;;;;;;;21.33;13.13;;;0.70;99.90;;;;;;5112989;28;20450;-64
2022/12/12 04:57:44;;;;;;;23.13;13.02;;;0.70;99.90;;;;;;5112373;28;20070;-63
2022/12/12 05:00:11;;;;;;;24.33;13.57;;;0.60;99.90;;;;;;5110680;28;20391;-64
2022/12/12 05:02:52;;;;;;;23.48;13.23;;;0.70;99.90;;;;;;5112593;28;20326;-64
2022/12/12 05:05:27;;;;;;;23.42;13.40;;;0.70;99.90;;;;;;5075394;28;20079;-64
2022/12/12 05:07:59;;;;;;;24.90;13.73;;;0.70;99.90;;;;;;5112716;28;20054;-64
2022/12/12 05:10:25;;;;;;;25.98;13.48;;;0.70;99.90;;;;;;5112054;28;20066;-63
2022/12/12 05:12:56;;;;;;;23.27;13.25;;;0.70;99.90;;;;;;5072044;28;20047;-63
2022/12/12 05:15:23;;;;;;;23.05;13.05;;;0.90;99.90;;;;;;5112868;28;20063;-64
2022/12/12 05:18:06;;;;;;;22.85;13.10;;;0.70;99.90;;;;;;5110057;28;20097;-63
2022/12/12 05:20:32;;;;;;;23.42;13.25;;;0.70;99.90;;;;;;5069875;28;20491;-64
2022/12/12 05:22:57;;;;;;;26.08;13.20;;;0.70;99.90;;;;;;5110722;28;20066;-64
2022/12/12 05:25:23;;;;;;;28.48;15.15;;;0.70;99.90;;;;;;5112192;28;20048;-64
2022/12/12 05:27:49;;;;;;;25.48;14.30;;;0.70;99.90;;;;;;5113384;28;20039;-63
2022/12/12 05:30:15;;;;;;;24.85;13.40;;;0.70;99.90;;;;;;5110522;28;20039;-63
2022/12/12 05:32:40;;;;;;;25.92;13.48;;;0.70;99.90;;;;;;5113084;28;20567;-64
2022/12/12 05:35:07;;;;;;;24.80;14.00;;;0.70;99.90;;;;;;5091408;28;20480;-64
2022/12/12 05:37:33;;;;;;;24.60;13.50;;;0.70;99.90;;;;;;5113597;28;20131;-64
2022/12/12 05:39:59;;;;;;;22.50;13.93;;;0.70;99.90;;;;;;5111111;28;20079;-63
2022/12/12 05:42:24;;;;;;;25.45;14.27;;;0.70;99.90;;;;;;5110265;28;20051;-64
2022/12/12 05:44:50;;;;;;;23.85;14.77;;;0.70;99.90;;;;;;5112181;28;20042;-63
2022/12/12 05:47:17;;;;;;;26.73;13.75;;;0.70;99.90;;;;;;5110830;28;20051;-65
2022/12/12 05:49:43;;;;;;;27.20;13.90;;;0.70;99.90;;;;;;5112207;28;20058;-64
2022/12/12 05:52:09;;;;;;;23.30;13.27;;;0.70;99.90;;;;;;5109722;28;20336;-65
2022/12/12 05:54:35;;;;;;;24.17;13.73;;;0.60;99.90;;;;;;5086541;28;20043;-64
2022/12/12 05:57:01;;;;;;;24.90;13.65;;;0.60;99.90;;;;;;5091710;28;20083;-64
2022/12/12 05:59:27;;;;;;;25.88;14.20;;;0.60;99.90;;;;;;5110876;28;20044;-64
2022/12/12 06:01:52;;;;;;;23.50;12.75;;;0.70;99.90;;;;;;5111741;28;20039;-64
2022/12/12 06:04:18;;;;;;;23.60;13.50;;;0.60;99.90;;;;;;5110231;28;20039;-64
2022/12/12 06:06:44;;;;;;;27.30;14.23;;;0.70;99.90;;;;;;5111790;28;20053;-64
2022/12/12 06:09:09;;;;;;;25.08;14.02;;;0.70;99.90;;;;;;5109003;28;20063;-64
2022/12/12 06:11:35;;;;;;;24.73;14.07;;;0.70;99.90;;;;;;5111684;28;20044;-67
2022/12/12 06:14:01;;;;;;;23.40;13.38;;;0.70;99.90;;;;;;5108544;28;20084;-64
2022/12/12 06:16:26;;;;;;;24.70;13.93;;;0.70;99.90;;;;;;5110757;28;20074;-64
2022/12/12 06:18:53;;;;;;;23.85;13.60;;;0.70;99.90;;;;;;5092829;28;20043;-64
2022/12/12 06:21:20;;;;;;;24.05;13.60;;;0.70;99.90;;;;;;5110385;28;20047;-64
2022/12/12 06:23:46;;;;;;;24.15;13.60;;;0.70;99.90;;;;;;5110484;28;20035;-64
2022/12/12 06:26:14;;;;;;;25.05;14.27;;;0.60;99.90;;;;;;5109113;28;20133;-63
2022/12/12 06:28:40;;;;;;;26.58;13.38;;;0.60;99.90;;;;;;5087256;28;20044;-64
2022/12/12 06:31:07;;;;;;;27.33;14.35;;;0.60;99.90;;;;;;5108317;28;20134;-64
2022/12/12 06:33:34;;;;;;;23.98;13.93;;;0.60;99.90;;;;;;5093094;28;20043;-65
2022/12/12 06:36:12;;;;;;;25.08;14.32;;;0.60;99.90;;;;;;5110955;28;20478;-66
2022/12/12 06:38:39;;;;;;;28.58;13.85;;;0.60;99.90;;;;;;5090032;28;20246;-64
2022/12/12 06:41:07;;;;;;;25.17;13.55;;;0.60;99.90;;;;;;5111037;28;20078;-64
2022/12/12 06:43:33;;;;;;;26.60;14.32;;;0.60;99.90;;;;;;5108958;28;20134;-64
2022/12/12 06:46:04;;;;;;;23.77;13.15;;;0.60;99.90;;;;;;5111930;28;20505;-64
2022/12/12 06:48:31;;;;;;;24.48;13.82;;;0.60;99.90;;;;;;5109571;28;20047;-64
2022/12/12 06:50:58;;;;;;;27.75;15.02;;;0.50;99.90;;;;;;5110616;28;20066;-64
2022/12/12 06:53:24;;;;;;;26.67;14.43;;;0.60;99.90;;;;;;5111790;28;20044;-64
2022/12/12 06:55:50;;;;;;;24.75;14.35;;;0.60;99.90;;;;;;5108213;28;20047;-64
2022/12/12 06:58:15;;;;;;;23.77;13.60;;;0.60;99.90;;;;;;5093184;28;20349;-65
2022/12/12 07:00:41;;;;;;;24.95;14.15;;;0.60;99.90;;;;;;5069341;28;20065;-64
2022/12/12 07:03:08;;;;;;;24.60;13.60;;;0.60;99.90;;;;;;5093276;28;20086;-64
2022/12/12 07:05:33;;;;;;;27.55;14.82;;;0.60;99.90;;;;;;5107746;28;20400;-64
2022/12/12 07:08:01;;;;;;;23.50;14.27;;;0.60;99.90;;;;;;5110958;28;20043;-64
2022/12/12 07:10:33;;;;;;;25.05;13.40;;;0.60;99.90;;;;;;5109302;28;20036;-63
2022/12/12 07:12:59;;;;;;;24.25;14.38;;;0.60;99.90;;;;;;5106484;28;20700;-64
2022/12/12 07:15:25;;;;;;;22.80;13.20;;;0.60;99.90;;;;;;5091980;28;20098;-64
2022/12/12 07:17:52;;;;;;;25.23;14.23;;;0.80;99.90;;;;;;5107886;28;20047;-63
2022/12/12 07:20:19;;;;;;;24.45;14.10;;;0.20;99.90;;;;;;5092021;28;20069;-64
2022/12/12 07:22:44;;;;;;;24.10;13.52;;;1.20;99.90;;;;;;5108642;28;20444;-64
2022/12/12 07:25:10;;;;;;;23.35;14.02;;;0.60;99.90;;;;;;5109465;28;20104;-64
2022/12/12 07:27:36;;;;;;;22.83;12.82;;;0.60;99.90;;;;;;5110092;28;20031;-63
2022/12/12 07:30:02;;;;;;;22.67;13.23;;;0.60;99.90;;;;;;5089312;28;20047;-63
2022/12/12 07:32:27;;;;;;;26.67;14.05;;;0.50;99.90;;;;;;5111294;28;20048;-64
2022/12/12 07:34:53;;;;;;;24.38;13.85;;;0.50;99.90;;;;;;5108318;28;20051;-63
2022/12/12 07:37:19;;;;;;;23.35;13.38;;;0.50;99.90;;;;;;5111256;28;20044;-64
2022/12/12 07:39:44;;;;;;;25.67;14.10;;;0.50;99.90;;;;;;5107842;28;20413;-64
2022/12/12 07:42:10;;;;;;;23.52;13.32;;;0.50;99.90;;;;;;5110344;28;20040;-64
2022/12/12 07:44:36;;;;;;;26.58;14.05;;;0.90;99.90;;;;;;5109256;28;20059;-63
2022/12/12 07:47:01;;;;;;;23.52;13.50;;;0.50;99.90;;;;;;5089380;28;20058;-63
2022/12/12 07:49:28;;;;;;;23.40;14.15;;;0.50;99.90;;;;;;5092364;28;20063;-63
2022/12/12 07:51:54;;;;;;;23.67;13.68;;;0.60;99.90;;;;;;5108052;28;20044;-63
2022/12/12 07:54:20;;;;;;;24.52;13.50;;;0.50;99.90;;;;;;5092034;28;20032;-64
2022/12/12 07:56:46;;;;;;;27.23;14.48;;;0.50;99.90;;;;;;5105564;28;20095;-64
2022/12/12 07:59:12;;;;;;;24.38;13.77;;;0.50;99.90;;;;;;5094567;28;20078;-64
2022/12/12 08:01:38;;;;;;;23.08;13.48;;;0.60;99.90;;;;;;5113097;28;20078;-63
2022/12/12 08:04:04;;;;;;;24.33;13.02;;;0.70;99.90;;;;;;5113273;28;20043;-63
2022/12/12 08:06:30;;;;;;;21.88;12.55;;;0.50;99.90;;;;;;5111145;28;20042;-63
2022/12/12 08:08:56;;;;;;;22.25;13.25;;;0.60;99.90;;;;;;5109482;28;20499;-63
2022/12/12 08:11:24;;;;;;;22.25;12.85;;;0.60;99.90;;;;;;5113595;28;20118;-63
2022/12/12 08:13:50;;;;;;;25.13;14.07;;;0.50;99.90;;;;;;5112196;28;20039;-64
2022/12/12 08:16:21;;;;;;;26.55;14.10;;;0.50;99.90;;;;;;5114863;28;20054;-64
2022/12/12 08:18:48;;;;;;;22.67;12.93;;;0.50;99.90;;;;;;5113430;28;20143;-63
2022/12/12 08:21:15;;;;;;;23.13;13.73;;;0.60;99.90;;;;;;5112066;28;20111;-63
2022/12/12 08:23:41;;;;;;;23.25;13.93;;;0.60;99.90;;;;;;5113213;28;21054;-63
2022/12/12 08:26:13;;;;;;;24.00;13.93;;;0.60;99.90;;;;;;5112013;28;20048;-63
2022/12/12 08:28:40;;;;;;;24.88;13.00;;;0.60;99.90;;;;;;5113836;28;20036;-63
2022/12/12 08:31:07;;;;;;;26.05;13.32;;;0.60;99.90;;;;;;5111581;28;20445;-63
2022/12/12 08:33:32;;;;;;;25.38;13.98;;;0.60;99.90;;;;;;5113800;28;20043;-63
2022/12/12 08:35:58;;;;;;;26.27;14.90;;;0.60;99.90;;;;;;5112907;28;20058;-63
2022/12/12 08:38:24;;;;;;;24.90;14.13;;;0.60;99.90;;;;;;5110547;28;20040;-63
2022/12/12 08:40:50;;;;;;;25.58;14.25;;;0.60;99.90;;;;;;5094926;28;20039;-63
2022/12/12 08:43:15;;;;;;;25.27;14.02;;;0.60;99.90;;;;;;5109530;28;20518;-63
2022/12/12 08:45:41;;;;;;;25.08;13.85;;;0.60;99.90;;;;;;5113568;28;20346;-63
2022/12/12 08:48:09;;;;;;;24.23;13.90;;;0.70;99.90;;;;;;5110743;28;20103;-63
2022/12/12 08:50:35;;;;;;;25.38;13.75;;;0.70;99.90;;;;;;5092880;28;20455;-64
2022/12/12 08:53:00;;;;;;;25.77;14.73;;;0.70;99.90;;;;;;5112803;28;20364;-62
2022/12/12 08:55:26;;;;;;;24.88;14.68;;;0.70;99.90;;;;;;5093569;28;20059;-63
2022/12/12 08:57:52;;;;;;;26.70;13.90;;;0.70;99.90;;;;;;5091340;28;20126;-63
2022/12/12 09:00:18;;;;;;;23.98;14.00;;;0.80;99.90;;;;;;5110081;28;20134;-63
2022/12/12 09:02:43;;;;;;;27.52;15.10;;;0.80;99.90;;;;;;5113710;28;20106;-63
2022/12/12 09:05:09;;;;;;;27.98;14.60;;;0.80;99.90;;;;;;5111429;28;20191;-64
2022/12/12 09:07:36;;;;;;;27.80;14.35;;;0.90;99.90;;;;;;5094530;28;20059;-63
2022/12/12 09:10:03;;;;;;;26.15;14.35;;;0.90;99.90;;;;;;5110149;28;20055;-64
2022/12/12 09:12:29;;;;;;;25.45;14.30;;;0.90;99.90;;;;;;5111851;28;20144;-64
2022/12/12 09:14:55;;;;;;;26.40;14.57;;;0.90;99.90;;;;;;5110800;28;20475;-62
2022/12/12 09:17:21;;;;;;;25.48;14.98;;;0.90;99.90;;;;;;5088769;28;20044;-63
2022/12/12 09:19:47;;;;;;;25.90;15.45;;;0.90;99.90;;;;;;5113774;28;20126;-64
2022/12/12 09:22:13;;;;;;;32.35;15.93;;;0.90;99.90;;;;;;5093279;28;20563;-63
2022/12/12 09:24:38;;;;;;;27.95;14.65;;;1.00;99.90;;;;;;5112978;28;20101;-63
2022/12/12 09:27:04;;;;;;;25.88;15.68;;;1.00;99.90;;;;;;5112242;28;20043;-62
2022/12/12 09:29:30;;;;;;;27.17;15.02;;;1.00;99.90;;;;;;5113399;28;20362;-63
2022/12/12 09:31:56;;;;;;;28.55;14.82;;;1.00;99.90;;;;;;5114471;28;20047;-63
2022/12/12 09:34:21;;;;;;;25.73;15.02;;;1.00;99.90;;;;;;5110374;28;20082;-63
2022/12/12 09:36:47;;;;;;;27.73;16.10;;;1.10;99.90;;;;;;5113746;28;20039;-63
2022/12/12 09:39:13;;;;;;;26.90;15.10;;;1.00;99.90;;;;;;5110826;28;20039;-63
2022/12/12 09:41:38;;;;;;;27.70;15.50;;;1.10;99.90;;;;;;5113993;28;20054;-63
2022/12/12 09:44:08;;;;;;;28.92;16.10;;;1.10;99.90;;;;;;5112457;28;20146;-63
2022/12/12 09:47:04;;;;;;;27.05;14.90;;;1.10;99.90;;;;;;5113743;28;20036;-63
2022/12/12 09:49:52;;;;;;;27.38;15.05;;;0.10;99.90;;;;;;5110944;28;20066;-63
2022/12/12 09:52:32;;;;;;;25.42;14.63;;;1.10;99.90;;;;;;5109325;28;20250;-64
2022/12/12 09:55:27;;;;;;;29.67;15.50;;;1.10;99.90;;;;;;5106314;28;20061;-63
2022/12/12 09:58:02;;;;;;;30.17;16.00;;;1.10;99.90;;;;;;5097401;28;20066;-63
2022/12/12 10:00:33;;;;;;;27.65;15.73;;;1.10;99.90;;;;;;5085880;28;20091;-63
2022/12/12 10:03:29;;;;;;;31.65;17.33;;;1.10;99.90;;;;;;5107126;28;20101;-63
2022/12/12 10:06:05;;;;;;;30.23;16.00;;;1.20;99.90;;;;;;5083780;28;20245;-63
2022/12/12 10:08:36;;;;;;;28.08;15.57;;;1.20;99.90;;;;;;5105495;27;20035;-63
2022/12/12 10:11:48;;;;;;;27.80;15.90;;;3.00;99.90;;;;;;5092777;28;20040;-63
2022/12/12 10:13:52;;;;;;;29.30;15.65;;;1.30;99.90;;;;;;5108552;28;20100;-64
2022/12/12 10:16:19;;;;;;;28.23;15.95;;;1.30;99.90;;;;;;5110214;28;20055;-63
2022/12/12 10:18:50;;;;;;;27.08;16.48;;;1.30;99.90;;;;;;5109892;28;20050;-62
2022/12/12 10:21:26;;;;;;;30.60;16.45;;;1.30;99.90;;;;;;5109021;28;20047;-63
2022/12/12 10:24:17;;;;;;;31.25;16.05;;;1.40;99.90;;;;;;5109781;28;20042;-63
2022/12/12 10:26:42;;;;;;;29.83;16.10;;;1.40;99.90;;;;;;5108047;28;20047;-63
2022/12/12 10:29:13;;;;;;;30.50;16.88;;;1.50;99.90;;;;;;5109975;28;20633;-64
2022/12/12 10:31:45;;;;;;;29.75;17.02;;;1.50;99.90;;;;;;5090982;28;20472;-64
2022/12/12 10:34:13;;;;;;;29.73;15.90;;;1.50;99.90;;;;;;5085636;28;20043;-65
2022/12/12 10:36:57;;;;;;;31.77;15.98;;;1.50;99.90;;;;;;5111945;28;20063;-63
2022/12/12 10:39:50;;;;;;;31.00;16.88;;;1.60;99.90;;;;;;5106878;28;20078;-65
2022/12/12 10:42:24;;;;;;;30.33;15.85;;;1.50;99.90;;;;;;5109905;28;20122;-63
2022/12/12 10:44:59;;;;;;;27.50;15.88;;;1.50;99.90;;;;;;5091280;28;21022;-63
2022/12/12 10:47:25;;;;;;;26.88;13.70;;;1.60;99.90;;;;;;5107903;28;20048;-62
2022/12/12 10:49:57;;;;;;;30.80;16.38;;;1.60;99.90;;;;;;5109145;28;20035;-65
2022/12/12 10:52:22;;;;;;;25.00;14.48;;;1.60;99.90;;;;;;5089548;28;20050;-67
2022/12/12 10:54:57;;;;;;;28.90;16.05;;;1.60;99.90;;;;;;5108652;28;20035;-66
2022/12/12 10:57:25;;;;;;;31.60;16.10;;;1.60;99.90;;;;;;5109411;28;20044;-65
2022/12/12 10:59:56;;;;;;;26.77;15.20;;;1.60;99.90;;;;;;5089524;28;20060;-65
2022/12/12 11:02:42;;;;;;;26.33;15.68;;;1.70;99.90;;;;;;5109504;28;20042;-65
2022/12/12 11:05:19;;;;;;;29.70;15.13;;;1.70;99.90;;;;;;5108504;28;20545;-65
2022/12/12 11:07:49;;;;;;;28.67;15.90;;;1.70;99.90;;;;;;5091382;28;20384;-65
2022/12/12 11:10:22;;;;;;;30.13;15.85;;;1.80;99.90;;;;;;5110580;28;20081;-66
2022/12/12 11:13:07;;;;;;;29.38;15.45;;;1.70;99.90;;;;;;5107369;28;20111;-66
2022/12/12 11:15:48;;;;;;;27.20;15.43;;;1.70;99.90;;;;;;5091036;28;20051;-66
2022/12/12 11:18:17;;;;;;;28.08;14.77;;;1.70;99.90;;;;;;5106774;28;20051;-66
2022/12/12 11:21:06;;;;;;;27.73;15.88;;;1.80;99.90;;;;;;5091985;28;20445;-65
2022/12/12 11:23:34;;;;;;;27.92;16.02;;;1.80;99.90;;;;;;5081775;28;20063;-65
2022/12/12 11:26:03;;;;;;;28.92;17.02;;;1.80;99.90;;;;;;5088052;28;20082;-66
2022/12/12 11:28:35;;;;;;;29.02;16.77;;;1.80;99.90;;;;;;5107239;28;20137;-67
2022/12/12 11:31:09;;;;;;;32.08;16.08;;;1.80;99.90;;;;;;5104697;28;20040;-66
2022/12/12 11:33:49;;;;;;;29.92;16.15;;;1.90;99.90;;;;;;5108838;28;20063;-66
2022/12/12 11:36:26;;;;;;;27.88;16.73;;;1.80;99.90;;;;;;5110406;28;20049;-67
2022/12/12 11:38:57;;;;;;;32.50;17.17;;;1.80;99.90;;;;;;5106563;28;20469;-66
2022/12/12 11:41:22;;;;;;;31.10;16.63;;;1.80;99.90;;;;;;5109599;28;20546;-66
2022/12/12 11:43:48;;;;;;;33.13;18.38;;;1.90;99.90;;;;;;5106121;28;20086;-65
2022/12/12 11:46:14;;;;;;;34.55;17.40;;;1.90;99.90;;;;;;5088712;28;20066;-66
2022/12/12 11:48:55;;;;;;;33.10;17.80;;;2.00;99.90;;;;;;5107605;28;20157;-66
2022/12/12 11:51:38;;;;;;;34.92;17.85;;;2.20;99.90;;;;;;5105213;28;20409;-66
2022/12/12 11:54:15;;;;;;;31.25;16.50;;;2.30;99.90;;;;;;5092090;28;20096;-66
2022/12/12 11:56:43;;;;;;;;;;;2.30;99.90;;;;;;5088351;28;20059;-65
2022/12/12 11:59:30;;;;;;;32.83;17.25;;;2.30;99.90;;;;;;5109009;28;20003;-66
2022/12/12 12:02:34;;;;;;;29.75;16.73;;;2.40;99.90;;;;;;5089545;28;20582;-65
2022/12/12 12:05:23;;;;;;;32.05;17.15;;;2.40;99.90;;;;;;5065999;28;20082;-66
2022/12/12 12:08:20;;;;;;;32.42;17.40;;;2.30;99.90;;;;;;5106766;28;20058;-66
2022/12/12 12:11:07;;;;;;;31.13;17.42;;;2.30;99.90;;;;;;5110397;28;20726;-66
2022/12/12 12:13:44;;;;;;;33.17;17.13;;;2.30;99.90;;;;;;5086103;28;20108;-65
2022/12/12 12:16:52;;;;;;;32.10;16.48;;;2.30;99.90;;;;;;5090576;28;20131;-65
2022/12/12 12:19:39;;;;;;;30.58;16.35;;;2.30;99.90;;;;;;5107566;28;20411;-66
2022/12/12 12:22:22;;;;;;;31.83;17.10;;;2.30;99.90;;;;;;5106667;28;20243;-66
2022/12/12 12:25:11;;;;;;;28.38;15.45;;;2.30;99.90;;;;;;5089947;28;20629;-65
2022/12/12 12:28:04;;;;;;;31.45;17.58;;;3.50;99.90;;;;;;5109498;28;20040;-65
2022/12/12 12:30:55;;;;;;;36.00;19.00;;;2.20;99.90;;;;;;5086528;28;20059;-65
2022/12/12 12:33:54;;;;;;;34.97;18.15;;;2.10;99.90;;;;;;5109412;28;20043;-65
2022/12/12 12:37:01;;;;;;;37.08;19.45;;;2.10;99.90;;;;;;5053740;28;20856;-64
2022/12/12 12:39:38;;;;;;;;;;;2.10;99.90;;;;;;5106838;28;20055;-66
2022/12/12 12:42:30;;;;;;;40.33;20.17;;;2.10;99.90;;;;;;5110285;28;19945;-66
2022/12/12 12:45:14;;;;;;;40.28;20.17;;;2.00;99.90;;;;;;5111424;28;20077;-65
2022/12/12 12:47:51;;;;;;;37.95;20.45;;;2.00;99.90;;;;;;5111441;28;20091;-65
2022/12/12 12:50:25;;;;;;;40.47;21.23;;;2.10;99.90;;;;;;5095847;28;20052;-65
2022/12/12 12:53:15;;;;;;;36.45;20.00;;;2.10;99.90;;;;;;5094798;28;20048;-67
2022/12/12 12:55:46;;;;;;;36.53;19.67;;;2.10;99.90;;;;;;5110128;28;20051;-65
2022/12/12 12:58:21;;;;;;;38.67;21.17;;;2.20;99.90;;;;;;5114628;28;20235;-65
2022/12/12 13:00:57;;;;;;;39.58;21.08;;;2.20;99.90;;;;;;5110694;28;20091;-67
2022/12/12 13:03:27;;;;;;;40.50;19.80;;;2.20;99.90;;;;;;5112970;28;20044;-66
2022/12/12 13:05:59;;;;;;;38.78;19.38;;;2.40;99.90;;;;;;5111043;28;20032;-65
2022/12/12 13:08:41;;;;;;;38.05;20.83;;;2.70;99.90;;;;;;5110645;28;20056;-66
2022/12/12 13:11:17;;;;;;;39.95;19.45;;;3.20;99.90;;;;;;5094992;28;20048;-66
2022/12/12 13:13:45;;;;;;;36.83;19.25;;;3.60;99.90;;;;;;5110778;28;20135;-66